Time;durP1;ratioP1;P1;durP2;ratioP2;P2;SDS_P1;SDS_P2;PMS_P1;PMS_P2;Temp;Humidity;BMP_temperature;BMP_pressure;BME280_temperature;BME280_humidity;BME280_pressure;Samples;Min_cycle;Max_cycle;Signal;HPM_P1;HPM_P2
2023/12/31 00:00:54;;;;;;;15.63;5.70;;;;;;;;;;5035773;28;20977;-80
2023/12/31 00:03:19;;;;;;;8.37;4.90;;;;;;;;;;5036045;28;21385;-79
2023/12/31 00:05:45;;;;;;;11.77;5.60;;;;;;;;;;5034905;28;20433;-81
2023/12/31 00:08:13;;;;;;;10.27;4.50;;;;;;;;;;5034863;28;20500;-79
2023/12/31 00:10:39;;;;;;;10.47;4.40;;;;;;;;;;5035557;28;20469;-79
2023/12/31 00:13:05;;;;;;;11.03;4.50;;;;;;;;;;5035143;28;20518;-81
2023/12/31 00:15:31;;;;;;;10.00;4.80;;;;;;;;;;5034483;28;20429;-81
2023/12/31 00:17:58;;;;;;;12.27;5.30;;;;;;;;;;5032243;28;20428;-81
2023/12/31 00:20:24;;;;;;;9.03;4.47;;;;;;;;;;4980533;28;20954;-82
2023/12/31 00:22:50;;;;;;;16.27;5.30;;;;;;;;;;5015926;28;20428;-81
2023/12/31 00:25:16;;;;;;;10.53;5.30;;;;;;;;;;5015874;28;20911;-81
2023/12/31 00:27:42;;;;;;;8.83;4.60;;;;;;;;;;5025710;28;20441;-81
2023/12/31 00:30:08;;;;;;;11.43;4.87;;;;;;;;;;5035179;28;20466;-80
2023/12/31 00:32:34;;;;;;;7.20;4.63;;;;;;;;;;5035324;28;20519;-80
2023/12/31 00:35:00;;;;;;;7.97;5.23;;;;;;;;;;5035294;28;20934;-80
2023/12/31 00:37:26;;;;;;;9.30;4.40;;;;;;;;;;5035247;28;20441;-80
2023/12/31 00:39:52;;;;;;;8.13;4.43;;;;;;;;;;5035039;28;20541;-80
2023/12/31 00:42:18;;;;;;;13.30;5.07;;;;;;;;;;5034580;28;20774;-80
2023/12/31 00:44:44;;;;;;;10.40;4.30;;;;;;;;;;5033521;28;20511;-81
2023/12/31 00:47:10;;;;;;;11.57;4.40;;;;;;;;;;5035020;28;20414;-81
2023/12/31 00:49:36;;;;;;;8.47;3.90;;;;;;;;;;5026708;28;20424;-81
2023/12/31 00:52:02;;;;;;;11.50;4.13;;;;;;;;;;5034870;28;20769;-82
2023/12/31 00:54:28;;;;;;;9.13;4.13;;;;;;;;;;5034768;28;20426;-81
2023/12/31 00:56:54;;;;;;;9.03;4.30;;;;;;;;;;5034438;28;20511;-80
2023/12/31 00:59:20;;;;;;;9.03;3.63;;;;;;;;;;5034598;28;20465;-81
2023/12/31 01:01:46;;;;;;;9.60;3.13;;;;;;;;;;5034665;28;20519;-80
2023/12/31 01:04:12;;;;;;;6.10;3.60;;;;;;;;;;5033355;28;20912;-80
2023/12/31 01:06:38;;;;;;;11.93;4.33;;;;;;;;;;5034408;28;20518;-80
2023/12/31 01:09:06;;;;;;;8.40;3.73;;;;;;;;;;5034564;28;20419;-81
2023/12/31 01:11:32;;;;;;;9.60;3.07;;;;;;;;;;5034281;28;20497;-80
2023/12/31 01:13:57;;;;;;;10.80;3.60;;;;;;;;;;5033213;28;20522;-80
2023/12/31 01:16:32;;;;;;;7.40;3.70;;;;;;;;;;5034316;28;20505;-81
2023/12/31 01:18:58;;;;;;;6.13;2.87;;;;;;;;;;5034367;28;20415;-80
2023/12/31 01:21:24;;;;;;;7.93;3.13;;;;;;;;;;5033933;28;20488;-81
2023/12/31 01:23:50;;;;;;;10.70;4.27;;;;;;;;;;5034387;28;20465;-80
2023/12/31 01:26:16;;;;;;;14.03;3.67;;;;;;;;;;5049129;28;20460;-81
2023/12/31 01:28:42;;;;;;;9.47;4.40;;;;;;;;;;5034270;28;20413;-81
2023/12/31 01:31:08;;;;;;;8.60;3.13;;;;;;;;;;5034182;28;20957;-80
2023/12/31 01:33:36;;;;;;;7.70;3.30;;;;;;;;;;5049372;28;20939;-80
2023/12/31 01:36:02;;;;;;;10.00;3.20;;;;;;;;;;5034023;28;20417;-81
2023/12/31 01:38:28;;;;;;;5.80;2.20;;;;;;;;;;5049329;28;20428;-80
2023/12/31 01:40:54;;;;;;;9.23;3.27;;;;;;;;;;5033443;28;20881;-79
2023/12/31 01:43:20;;;;;;;9.30;3.80;;;;;;;;;;5033836;28;20417;-80
2023/12/31 01:45:46;;;;;;;6.73;3.20;;;;;;;;;;5033892;28;20509;-80
2023/12/31 01:48:13;;;;;;;4.57;2.80;;;;;;;;;;5033889;28;20525;-80
2023/12/31 01:50:39;;;;;;;5.27;2.00;;;;;;;;;;5033799;28;20429;-80
2023/12/31 01:53:06;;;;;;;7.60;3.10;;;;;;;;;;5049304;28;20497;-80
2023/12/31 01:55:32;;;;;;;6.33;2.37;;;;;;;;;;5033225;28;20509;-80
2023/12/31 01:57:58;;;;;;;8.20;2.80;;;;;;;;;;5048777;28;20927;-81
2023/12/31 02:00:24;;;;;;;6.37;2.20;;;;;;;;;;5032684;28;20485;-79
2023/12/31 02:02:51;;;;;;;5.53;1.87;;;;;;;;;;5033257;28;20414;-80
2023/12/31 02:05:17;;;;;;;6.30;1.90;;;;;;;;;;5033304;28;20421;-79
2023/12/31 02:07:45;;;;;;;8.93;2.37;;;;;;;;;;5049142;28;20490;-81
2023/12/31 02:10:12;;;;;;;6.60;1.83;;;;;;;;;;5033699;28;20418;-79
2023/12/31 02:12:38;;;;;;;6.83;1.77;;;;;;;;;;5033397;28;20461;-82
2023/12/31 02:15:04;;;;;;;6.17;2.83;;;;;;;;;;5033658;28;20427;-81
2023/12/31 02:17:30;;;;;;;5.33;2.57;;;;;;;;;;5033553;28;20416;-80
2023/12/31 02:19:56;;;;;;;6.73;1.53;;;;;;;;;;4992506;28;20507;-82
2023/12/31 02:22:22;;;;;;;2.17;1.27;;;;;;;;;;5033202;28;20430;-84
2023/12/31 02:24:48;;;;;;;4.93;1.43;;;;;;;;;;5033634;28;20413;-82
2023/12/31 02:27:15;;;;;;;6.53;1.87;;;;;;;;;;5033134;28;20412;-81
2023/12/31 02:29:47;;;;;;;5.07;2.07;;;;;;;;;;5033372;28;20403;-81
2023/12/31 02:32:13;;;;;;;6.53;2.30;;;;;;;;;;5048969;28;20468;-80
2023/12/31 02:34:44;;;;;;;5.07;1.43;;;;;;;;;;5033212;28;20422;-80
2023/12/31 02:37:11;;;;;;;3.33;1.00;;;;;;;;;;5033404;28;20441;-80
2023/12/31 02:39:37;;;;;;;5.50;1.10;;;;;;;;;;5033229;28;20902;-84
2023/12/31 02:42:05;;;;;;;4.70;1.73;;;;;;;;;;5048059;28;20478;-80
2023/12/31 02:44:31;;;;;;;5.50;2.00;;;;;;;;;;5048704;28;20789;-80
2023/12/31 02:46:57;;;;;;;6.10;1.87;;;;;;;;;;5033372;28;20423;-81
2023/12/31 02:49:23;;;;;;;8.10;2.10;;;;;;;;;;5033129;28;20414;-82
2023/12/31 02:51:49;;;;;;;6.20;1.47;;;;;;;;;;5048410;28;20414;-82
2023/12/31 02:54:15;;;;;;;10.27;2.67;;;;;;;;;;5033054;28;20428;-81
2023/12/31 02:56:42;;;;;;;3.23;0.70;;;;;;;;;;5048072;28;20430;-81
2023/12/31 02:59:08;;;;;;;6.97;1.90;;;;;;;;;;5048235;28;20495;-81
2023/12/31 03:01:34;;;;;;;5.97;1.53;;;;;;;;;;5033004;28;21058;-84
2023/12/31 03:04:02;;;;;;;4.53;1.13;;;;;;;;;;5033078;28;20438;-83
2023/12/31 03:06:32;;;;;;;4.57;1.10;;;;;;;;;;5048301;28;20426;-80
2023/12/31 03:09:01;;;;;;;11.27;1.60;;;;;;;;;;5033028;28;20418;-81
2023/12/31 03:11:27;;;;;;;5.63;1.27;;;;;;;;;;5032211;28;20425;-80
2023/12/31 03:13:53;;;;;;;7.43;1.10;;;;;;;;;;5032813;28;20879;-85
2023/12/31 03:16:19;;;;;;;3.47;1.00;;;;;;;;;;5048170;28;20479;-80
2023/12/31 03:18:45;;;;;;;4.63;1.33;;;;;;;;;;5032770;28;20405;-81
2023/12/31 03:21:15;;;;;;;8.33;1.17;;;;;;;;;;5032796;28;20968;-80
2023/12/31 03:23:41;;;;;;;4.47;1.10;;;;;;;;;;5032861;28;20427;-84
2023/12/31 03:26:07;;;;;;;3.80;1.27;;;;;;;;;;5032438;28;20529;-81
2023/12/31 03:28:33;;;;;;;4.63;1.03;;;;;;;;;;5032848;28;20454;-81
2023/12/31 03:30:59;;;;;;;6.20;2.00;;;;;;;;;;5032640;28;20781;-83
2023/12/31 03:33:26;;;;;;;6.77;1.30;;;;;;;;;;5032578;28;20446;-81
2023/12/31 03:35:54;;;;;;;5.90;1.57;;;;;;;;;;5032509;28;20419;-83
2023/12/31 03:38:20;;;;;;;6.43;1.00;;;;;;;;;;5032906;28;20414;-80
2023/12/31 03:40:46;;;;;;;5.57;1.30;;;;;;;;;;5032261;28;20469;-81
2023/12/31 03:43:13;;;;;;;5.23;0.93;;;;;;;;;;5032812;28;20410;-82
2023/12/31 03:45:38;;;;;;;4.67;1.33;;;;;;;;;;5032576;28;20425;-84
2023/12/31 03:48:05;;;;;;;5.67;1.70;;;;;;;;;;5032687;28;20411;-83
2023/12/31 03:50:31;;;;;;;5.17;1.23;;;;;;;;;;5032543;28;20419;-80
2023/12/31 03:52:57;;;;;;;4.93;1.90;;;;;;;;;;5032610;28;20438;-85
2023/12/31 03:55:23;;;;;;;6.50;1.10;;;;;;;;;;5032073;28;20406;-81
2023/12/31 03:57:49;;;;;;;4.60;0.97;;;;;;;;;;5047832;28;20414;-81
2023/12/31 04:00:16;;;;;;;2.33;0.57;;;;;;;;;;5047510;28;20493;-81
2023/12/31 04:02:42;;;;;;;4.03;0.87;;;;;;;;;;5032148;28;20906;-81
2023/12/31 04:05:08;;;;;;;3.03;0.87;;;;;;;;;;5032510;28;20536;-81
2023/12/31 04:07:34;;;;;;;5.87;1.30;;;;;;;;;;5032453;28;20467;-83
2023/12/31 04:10:01;;;;;;;8.27;2.03;;;;;;;;;;5032415;28;20450;-81
2023/12/31 04:12:26;;;;;;;6.83;0.80;;;;;;;;;;5032075;28;20899;-80
2023/12/31 04:14:52;;;;;;;5.70;0.90;;;;;;;;;;5032316;28;20417;-83
2023/12/31 04:17:18;;;;;;;4.13;0.90;;;;;;;;;;5047580;28;20427;-81
2023/12/31 04:19:44;;;;;;;3.20;0.80;;;;;;;;;;5032275;28;20441;-80
2023/12/31 04:22:10;;;;;;;3.80;0.90;;;;;;;;;;5032252;28;20470;-81
2023/12/31 04:24:36;;;;;;;4.57;1.00;;;;;;;;;;5033726;28;20464;-80
2023/12/31 04:27:02;;;;;;;5.27;0.63;;;;;;;;;;5050655;28;20492;-80
2023/12/31 04:29:28;;;;;;;3.13;0.87;;;;;;;;;;5035623;28;20505;-80
2023/12/31 04:31:54;;;;;;;4.10;1.43;;;;;;;;;;5035741;28;20897;-79
2023/12/31 04:34:20;;;;;;;3.83;0.97;;;;;;;;;;5035682;28;20427;-79
2023/12/31 04:36:46;;;;;;;8.03;2.17;;;;;;;;;;5035669;28;20486;-80
2023/12/31 04:39:12;;;;;;;2.13;0.60;;;;;;;;;;5035526;28;20441;-80
2023/12/31 04:41:38;;;;;;;3.67;0.57;;;;;;;;;;5035010;28;20473;-79
2023/12/31 04:44:04;;;;;;;4.90;0.47;;;;;;;;;;5035462;28;20417;-79
2023/12/31 04:46:30;;;;;;;5.80;1.40;;;;;;;;;;5035397;28;20428;-80
2023/12/31 04:48:56;;;;;;;8.43;2.37;;;;;;;;;;5035379;28;20440;-80
2023/12/31 04:51:30;;;;;;;4.97;1.97;;;;;;;;;;5050615;28;20915;-80
2023/12/31 04:53:56;;;;;;;3.03;0.83;;;;;;;;;;5035238;28;20406;-80
2023/12/31 04:56:24;;;;;;;5.50;1.00;;;;;;;;;;5034943;28;20420;-80
2023/12/31 04:58:50;;;;;;;4.97;0.50;;;;;;;;;;5035043;28;20410;-80
2023/12/31 05:01:16;;;;;;;6.73;1.33;;;;;;;;;;5034921;28;20959;-81
2023/12/31 05:03:43;;;;;;;7.43;1.20;;;;;;;;;;5035001;28;20505;-81
2023/12/31 05:06:10;;;;;;;7.30;1.17;;;;;;;;;;5034859;28;20412;-80
2023/12/31 05:08:36;;;;;;;9.77;1.17;;;;;;;;;;5050113;28;20431;-80
2023/12/31 05:11:02;;;;;;;6.20;1.70;;;;;;;;;;5034331;28;20820;-81
2023/12/31 05:13:28;;;;;;;4.37;1.43;;;;;;;;;;5034923;28;20942;-81
2023/12/31 05:15:54;;;;;;;5.10;1.37;;;;;;;;;;5034823;28;20417;-81
2023/12/31 05:18:20;;;;;;;3.40;1.10;;;;;;;;;;5034823;28;20415;-80
2023/12/31 05:20:46;;;;;;;3.17;1.10;;;;;;;;;;5034679;28;20871;-80
2023/12/31 05:23:12;;;;;;;6.30;2.00;;;;;;;;;;5034733;28;20410;-81
2023/12/31 05:25:38;;;;;;;2.80;0.90;;;;;;;;;;5034356;28;20437;-84
2023/12/31 05:28:04;;;;;;;5.37;2.00;;;;;;;;;;5034612;28;20410;-84
2023/12/31 05:30:30;;;;;;;5.60;1.30;;;;;;;;;;5034662;28;20427;-81
2023/12/31 05:32:55;;;;;;;3.13;0.97;;;;;;;;;;5034611;28;20411;-80
2023/12/31 05:35:21;;;;;;;4.33;0.93;;;;;;;;;;5034410;28;20416;-82
2023/12/31 05:37:47;;;;;;;7.43;1.70;;;;;;;;;;5034554;28;20417;-79
2023/12/31 05:40:13;;;;;;;4.17;0.33;;;;;;;;;;5034066;28;21313;-80
2023/12/31 05:42:39;;;;;;;4.47;0.90;;;;;;;;;;5034439;28;20472;-83
2023/12/31 05:45:06;;;;;;;3.57;0.63;;;;;;;;;;5034322;28;20414;-83
2023/12/31 05:47:32;;;;;;;2.47;1.07;;;;;;;;;;5034264;28;20418;-84
2023/12/31 05:49:58;;;;;;;3.53;0.70;;;;;;;;;;5034303;28;20422;-84
2023/12/31 05:52:23;;;;;;;3.47;0.60;;;;;;;;;;5034386;28;20437;-85
2023/12/31 05:54:49;;;;;;;6.70;1.10;;;;;;;;;;5034126;28;20410;-81
2023/12/31 05:57:16;;;;;;;3.13;0.73;;;;;;;;;;5033925;28;20417;-82
2023/12/31 05:59:42;;;;;;;3.10;0.80;;;;;;;;;;5049270;28;20465;-83
2023/12/31 06:02:07;;;;;;;1.90;0.37;;;;;;;;;;5034030;28;20957;-82
2023/12/31 06:04:33;;;;;;;4.50;0.40;;;;;;;;;;5034005;28;20407;-82
2023/12/31 06:06:59;;;;;;;3.20;0.70;;;;;;;;;;5034058;28;20752;-86
2023/12/31 06:09:26;;;;;;;2.43;0.90;;;;;;;;;;5033942;28;20411;-81
2023/12/31 06:11:52;;;;;;;4.90;1.17;;;;;;;;;;5033620;28;20506;-88
2023/12/31 06:14:18;;;;;;;3.10;0.70;;;;;;;;;;5049565;28;20420;-81
2023/12/31 06:16:44;;;;;;;8.20;1.10;;;;;;;;;;5033893;28;20415;-82
2023/12/31 06:19:10;;;;;;;3.40;0.73;;;;;;;;;;5012217;28;21044;-84
2023/12/31 06:21:36;;;;;;;3.23;1.10;;;;;;;;;;4994090;28;20485;-81
2023/12/31 06:24:02;;;;;;;3.67;1.00;;;;;;;;;;5014098;28;20464;-86
2023/12/31 06:26:28;;;;;;;2.10;1.07;;;;;;;;;;5013614;28;20487;-80
2023/12/31 06:28:54;;;;;;;2.67;0.57;;;;;;;;;;5013926;28;20485;-81
2023/12/31 06:31:20;;;;;;;3.40;1.37;;;;;;;;;;5028638;28;20411;-80
2023/12/31 06:33:46;;;;;;;3.60;1.30;;;;;;;;;;5033748;28;20411;-81
2023/12/31 06:36:11;;;;;;;3.60;1.00;;;;;;;;;;5048782;28;20408;-80
2023/12/31 06:38:37;;;;;;;3.70;0.90;;;;;;;;;;5033451;28;20406;-81
2023/12/31 06:41:08;;;;;;;2.53;0.67;;;;;;;;;;5033106;28;20496;-80
2023/12/31 06:43:34;;;;;;;2.43;0.70;;;;;;;;;;5033198;28;20492;-81
2023/12/31 06:46:00;;;;;;;3.90;1.27;;;;;;;;;;5048595;28;20423;-79
2023/12/31 06:48:26;;;;;;;3.47;0.50;;;;;;;;;;5032188;28;20780;-79
2023/12/31 06:50:52;;;;;;;2.23;0.73;;;;;;;;;;5033113;28;20770;-80
2023/12/31 06:53:18;;;;;;;2.73;1.90;;;;;;;;;;5032840;28;20423;-83
2023/12/31 06:55:44;;;;;;;5.20;0.90;;;;;;;;;;5032634;28;20418;-84
2023/12/31 06:58:10;;;;;;;3.80;1.00;;;;;;;;;;5031959;28;20511;-80
2023/12/31 07:00:36;;;;;;;4.33;1.23;;;;;;;;;;5031521;28;20888;-85
2023/12/31 07:03:02;;;;;;;3.00;1.17;;;;;;;;;;5031501;28;20424;-81
2023/12/31 07:05:28;;;;;;;3.07;1.43;;;;;;;;;;5030838;28;20415;-80
2023/12/31 07:07:54;;;;;;;8.13;1.70;;;;;;;;;;5032533;28;20418;-79
2023/12/31 07:10:29;;;;;;;4.87;0.87;;;;;;;;;;5032117;28;20487;-79
2023/12/31 07:12:55;;;;;;;2.00;0.50;;;;;;;;;;5032884;28;20416;-80
2023/12/31 07:15:21;;;;;;;5.30;0.73;;;;;;;;;;5032736;28;20401;-80
2023/12/31 07:17:47;;;;;;;3.43;0.97;;;;;;;;;;5031530;28;20422;-81
2023/12/31 07:20:13;;;;;;;4.60;0.93;;;;;;;;;;4988434;28;20440;-79
2023/12/31 07:22:39;;;;;;;6.40;0.93;;;;;;;;;;5031411;28;20743;-80
2023/12/31 07:25:06;;;;;;;2.00;0.73;;;;;;;;;;5032406;28;20879;-80
2023/12/31 07:27:32;;;;;;;3.90;1.00;;;;;;;;;;5030944;28;20431;-81
2023/12/31 07:29:57;;;;;;;4.20;1.20;;;;;;;;;;5032798;28;20897;-81
2023/12/31 07:32:23;;;;;;;3.93;1.20;;;;;;;;;;5032793;28;20480;-80
2023/12/31 07:34:50;;;;;;;6.67;1.80;;;;;;;;;;5031393;28;20758;-80
2023/12/31 07:37:16;;;;;;;3.03;0.73;;;;;;;;;;5031474;28;20417;-80
2023/12/31 07:39:42;;;;;;;1.97;1.00;;;;;;;;;;5031450;28;20886;-80
2023/12/31 07:42:15;;;;;;;3.37;1.13;;;;;;;;;;5032059;28;20839;-79
2023/12/31 07:44:41;;;;;;;2.40;0.97;;;;;;;;;;5032276;28;20825;-82
2023/12/31 07:47:07;;;;;;;3.83;1.27;;;;;;;;;;5031727;28;20426;-83
2023/12/31 07:49:33;;;;;;;5.77;1.10;;;;;;;;;;5029784;28;20484;-79
2023/12/31 07:52:05;;;;;;;4.27;1.40;;;;;;;;;;5031783;28;20434;-80
2023/12/31 07:54:31;;;;;;;5.67;1.50;;;;;;;;;;5031746;28;20535;-80
2023/12/31 07:56:58;;;;;;;3.57;0.97;;;;;;;;;;5032282;28;20438;-81
2023/12/31 07:59:24;;;;;;;3.13;0.70;;;;;;;;;;5032981;28;20463;-81
2023/12/31 08:01:50;;;;;;;5.07;0.97;;;;;;;;;;5035394;28;20478;-81
2023/12/31 08:04:16;;;;;;;4.77;1.40;;;;;;;;;;5036016;28;20912;-80
2023/12/31 08:06:42;;;;;;;2.37;0.90;;;;;;;;;;5035255;28;20433;-81
2023/12/31 08:09:10;;;;;;;6.93;0.70;;;;;;;;;;5035401;28;20417;-80
2023/12/31 08:11:36;;;;;;;3.23;1.00;;;;;;;;;;5035693;28;20404;-81
2023/12/31 08:14:02;;;;;;;3.80;1.10;;;;;;;;;;5035806;28;20413;-81
2023/12/31 08:16:28;;;;;;;2.90;0.90;;;;;;;;;;5035199;28;20420;-81
2023/12/31 08:18:54;;;;;;;5.30;0.90;;;;;;;;;;5034656;28;20405;-80
2023/12/31 08:21:27;;;;;;;3.63;0.87;;;;;;;;;;4978039;28;20829;-80
2023/12/31 08:23:53;;;;;;;4.60;1.57;;;;;;;;;;5017273;28;20546;-79
2023/12/31 08:26:19;;;;;;;3.40;1.57;;;;;;;;;;5035454;28;20644;-82
2023/12/31 08:28:45;;;;;;;4.63;1.67;;;;;;;;;;5034568;28;20403;-81
2023/12/31 08:31:15;;;;;;;5.60;1.00;;;;;;;;;;5035508;28;20814;-81
2023/12/31 08:33:41;;;;;;;4.00;1.87;;;;;;;;;;5034364;28;20961;-80
2023/12/31 08:36:07;;;;;;;9.47;1.90;;;;;;;;;;5035603;28;20413;-80
2023/12/31 08:38:33;;;;;;;4.60;1.07;;;;;;;;;;5035535;28;20499;-80
2023/12/31 08:40:59;;;;;;;6.77;1.43;;;;;;;;;;5035066;28;20855;-80
2023/12/31 08:43:28;;;;;;;5.50;0.90;;;;;;;;;;5035479;28;20798;-80
2023/12/31 08:45:54;;;;;;;2.00;0.70;;;;;;;;;;5035456;28;20493;-82
2023/12/31 08:48:21;;;;;;;4.90;1.27;;;;;;;;;;5035382;28;20934;-81
2023/12/31 08:50:47;;;;;;;3.93;1.27;;;;;;;;;;5035372;28;20405;-82
2023/12/31 08:53:13;;;;;;;1.83;0.90;;;;;;;;;;5035207;28;20537;-81
2023/12/31 08:55:39;;;;;;;4.37;1.80;;;;;;;;;;5034959;28;20453;-81
2023/12/31 08:58:05;;;;;;;3.07;1.43;;;;;;;;;;5033946;28;20414;-81
2023/12/31 09:00:31;;;;;;;6.07;1.60;;;;;;;;;;5034884;28;20473;-80
2023/12/31 09:02:57;;;;;;;6.40;1.43;;;;;;;;;;5035055;28;20509;-82
2023/12/31 09:05:23;;;;;;;5.30;1.53;;;;;;;;;;5035055;28;20440;-82
2023/12/31 09:07:49;;;;;;;3.40;1.30;;;;;;;;;;5033810;28;20410;-82
2023/12/31 09:10:15;;;;;;;4.43;1.47;;;;;;;;;;5034277;28;20894;-83
2023/12/31 09:12:41;;;;;;;2.50;1.03;;;;;;;;;;5034878;28;20422;-82
2023/12/31 09:15:08;;;;;;;2.13;0.63;;;;;;;;;;5035068;28;20402;-83
2023/12/31 09:17:35;;;;;;;2.20;0.90;;;;;;;;;;5034835;28;20625;-82
2023/12/31 09:20:05;;;;;;;5.87;0.80;;;;;;;;;;5034859;28;20398;-82
2023/12/31 09:22:31;;;;;;;1.27;0.80;;;;;;;;;;4995255;28;20473;-83
2023/12/31 09:24:57;;;;;;;4.63;1.13;;;;;;;;;;5034296;28;20438;-82
2023/12/31 09:27:23;;;;;;;6.33;0.93;;;;;;;;;;5033334;28;20811;-81
2023/12/31 09:29:48;;;;;;;3.80;1.60;;;;;;;;;;5033476;28;20473;-81
2023/12/31 09:32:15;;;;;;;5.47;1.27;;;;;;;;;;5032705;28;20488;-82
2023/12/31 09:34:41;;;;;;;6.00;1.70;;;;;;;;;;5034725;28;20831;-82
2023/12/31 09:37:07;;;;;;;4.73;1.13;;;;;;;;;;5034497;28;20424;-82
2023/12/31 09:39:36;;;;;;;2.63;1.47;;;;;;;;;;5033907;28;20445;-82
2023/12/31 09:42:15;;;;;;;2.87;0.60;;;;;;;;;;5029229;28;20503;-82
2023/12/31 09:44:41;;;;;;;3.20;1.03;;;;;;;;;;5014368;28;20402;-81
2023/12/31 09:47:11;;;;;;;3.13;0.80;;;;;;;;;;5013801;28;20415;-82
2023/12/31 09:49:38;;;;;;;2.20;0.50;;;;;;;;;;5013944;28;20406;-81
2023/12/31 09:52:07;;;;;;;2.93;1.00;;;;;;;;;;5014470;28;20423;-82
2023/12/31 09:54:34;;;;;;;3.87;1.20;;;;;;;;;;5014116;28;20412;-82
2023/12/31 09:57:01;;;;;;;2.40;1.00;;;;;;;;;;5014472;28;20410;-81
2023/12/31 09:59:27;;;;;;;6.07;1.07;;;;;;;;;;5014195;28;20489;-81
2023/12/31 10:01:56;;;;;;;3.47;1.17;;;;;;;;;;5014188;28;20960;-81
2023/12/31 10:04:22;;;;;;;1.97;0.40;;;;;;;;;;5028838;28;20424;-81
2023/12/31 10:06:51;;;;;;;2.67;1.07;;;;;;;;;;5033891;28;20741;-82
2023/12/31 10:09:23;;;;;;;2.80;0.70;;;;;;;;;;5033438;28;20406;-81
2023/12/31 10:11:49;;;;;;;2.60;1.23;;;;;;;;;;5033884;28;20879;-80
2023/12/31 10:14:16;;;;;;;3.53;0.53;;;;;;;;;;5032659;28;20907;-79
2023/12/31 10:16:45;;;;;;;2.93;0.93;;;;;;;;;;5033836;28;20411;-81
2023/12/31 10:19:11;;;;;;;2.07;0.50;;;;;;;;;;5033655;28;20403;-80
2023/12/31 10:21:38;;;;;;;2.63;0.60;;;;;;;;;;4990587;28;20471;-80
2023/12/31 10:24:04;;;;;;;3.30;0.70;;;;;;;;;;5033455;28;20407;-81
2023/12/31 10:26:30;;;;;;;3.53;1.27;;;;;;;;;;5033034;28;20422;-81
2023/12/31 10:28:55;;;;;;;2.83;0.60;;;;;;;;;;5033551;28;20418;-80
2023/12/31 10:31:25;;;;;;;3.00;0.73;;;;;;;;;;5033508;28;20423;-81
2023/12/31 10:33:51;;;;;;;5.03;0.50;;;;;;;;;;5033238;28;20770;-80
2023/12/31 10:36:22;;;;;;;3.40;0.60;;;;;;;;;;5033444;28;20507;-81
2023/12/31 10:38:49;;;;;;;2.97;0.90;;;;;;;;;;5033389;28;20413;-81
2023/12/31 10:41:24;;;;;;;1.03;0.40;;;;;;;;;;5032959;28;20472;-80
2023/12/31 10:43:51;;;;;;;2.37;0.80;;;;;;;;;;5031903;28;20447;-81
2023/12/31 10:46:18;;;;;;;2.20;0.87;;;;;;;;;;5019966;28;20801;-82
2023/12/31 10:48:51;;;;;;;3.37;1.10;;;;;;;;;;5035950;23;20482;-81
2023/12/31 10:51:23;;;;;;;3.23;0.47;;;;;;;;;;5003597;28;20833;-82
2023/12/31 10:53:50;;;;;;;5.83;1.50;;;;;;;;;;4993149;28;20510;-81
2023/12/31 10:56:17;;;;;;;1.83;0.87;;;;;;;;;;4993009;28;20424;-81
2023/12/31 10:58:44;;;;;;;3.50;0.63;;;;;;;;;;4993463;28;20420;-82
2023/12/31 11:01:10;;;;;;;0.77;0.33;;;;;;;;;;4993086;28;20487;-82
2023/12/31 11:03:37;;;;;;;2.77;0.93;;;;;;;;;;4992975;28;20518;-82
2023/12/31 11:06:03;;;;;;;4.10;0.67;;;;;;;;;;4993218;28;20420;-82
2023/12/31 11:08:29;;;;;;;5.70;0.90;;;;;;;;;;5008201;28;20478;-82
2023/12/31 11:10:55;;;;;;;3.50;0.83;;;;;;;;;;4992890;28;20424;-81
2023/12/31 11:13:22;;;;;;;1.93;1.00;;;;;;;;;;4993223;28;20418;-82
2023/12/31 11:15:50;;;;;;;4.00;0.93;;;;;;;;;;4993006;28;20417;-82
2023/12/31 11:18:28;;;;;;;2.07;0.90;;;;;;;;;;4992614;28;20453;-82
2023/12/31 11:21:16;;;;;;;2.83;0.97;;;;;;;;;;4990028;28;20472;-82
2023/12/31 11:23:58;;;;;;;2.67;0.53;;;;;;;;;;4970108;28;20416;-81
2023/12/31 11:26:38;;;;;;;0.90;0.33;;;;;;;;;;4991838;28;20422;-82
2023/12/31 11:29:09;;;;;;;2.10;0.80;;;;;;;;;;4991725;28;20425;-82
2023/12/31 11:31:39;;;;;;;2.20;0.50;;;;;;;;;;4989067;28;20888;-82
2023/12/31 11:34:05;;;;;;;5.33;1.30;;;;;;;;;;5033729;23;20978;-81
2023/12/31 11:36:32;;;;;;;5.53;0.77;;;;;;;;;;5023057;28;20426;-79
2023/12/31 11:38:58;;;;;;;2.13;0.70;;;;;;;;;;5016085;28;20423;-81
2023/12/31 11:41:24;;;;;;;5.80;0.50;;;;;;;;;;5015020;28;20578;-82
2023/12/31 11:43:51;;;;;;;2.23;1.10;;;;;;;;;;5015290;28;20455;-81
2023/12/31 11:46:33;;;;;;;1.63;0.47;;;;;;;;;;5015062;28;20459;-82
2023/12/31 11:48:59;;;;;;;2.87;0.70;;;;;;;;;;5016430;28;20503;-81
2023/12/31 11:51:29;;;;;;;2.37;0.97;;;;;;;;;;5014827;28;20527;-82
2023/12/31 11:53:56;;;;;;;3.30;0.87;;;;;;;;;;5015931;28;20408;-81
2023/12/31 11:56:26;;;;;;;4.60;0.83;;;;;;;;;;5016263;28;20934;-80
2023/12/31 11:58:52;;;;;;;2.30;1.10;;;;;;;;;;5031309;28;20901;-81
2023/12/31 12:01:18;;;;;;;2.20;0.60;;;;;;;;;;5016027;28;20480;-81
2023/12/31 12:03:45;;;;;;;2.00;0.67;;;;;;;;;;5016203;28;20420;-81
2023/12/31 12:06:11;;;;;;;2.00;0.53;;;;;;;;;;5016281;28;20408;-81
2023/12/31 12:08:39;;;;;;;2.90;1.30;;;;;;;;;;5031402;28;20432;-80
2023/12/31 12:11:05;;;;;;;2.63;0.77;;;;;;;;;;5015789;28;20420;-82
2023/12/31 12:13:31;;;;;;;2.30;0.73;;;;;;;;;;5016064;28;20916;-81
2023/12/31 12:15:57;;;;;;;2.00;0.73;;;;;;;;;;5016049;28;20420;-81
2023/12/31 12:18:24;;;;;;;1.90;0.63;;;;;;;;;;5015984;28;20428;-82
2023/12/31 12:20:50;;;;;;;2.70;0.80;;;;;;;;;;5015765;28;20520;-81
2023/12/31 12:23:19;;;;;;;3.80;1.20;;;;;;;;;;5015854;28;20419;-80
2023/12/31 12:25:45;;;;;;;2.83;1.00;;;;;;;;;;4993732;28;20434;-82
2023/12/31 12:28:11;;;;;;;2.17;1.37;;;;;;;;;;5035410;28;20422;-79
2023/12/31 12:30:39;;;;;;;2.30;1.20;;;;;;;;;;5035376;28;20581;-78
2023/12/31 12:33:06;;;;;;;3.83;0.73;;;;;;;;;;5035245;28;20911;-83
2023/12/31 12:35:32;;;;;;;3.10;1.50;;;;;;;;;;5035240;28;20462;-80
2023/12/31 12:37:58;;;;;;;3.43;1.40;;;;;;;;;;5035329;28;20901;-82
2023/12/31 12:40:24;;;;;;;3.50;1.83;;;;;;;;;;5034585;28;20419;-82
2023/12/31 12:42:50;;;;;;;2.80;1.13;;;;;;;;;;5034996;28;20502;-82
2023/12/31 12:45:16;;;;;;;3.37;0.97;;;;;;;;;;5033980;28;20418;-82
2023/12/31 12:47:42;;;;;;;5.30;0.90;;;;;;;;;;5034917;28;20423;-82
2023/12/31 12:50:09;;;;;;;2.73;1.70;;;;;;;;;;5050295;28;20761;-87
2023/12/31 12:52:35;;;;;;;3.43;0.80;;;;;;;;;;5034796;28;20419;-83
2023/12/31 12:55:01;;;;;;;3.23;1.70;;;;;;;;;;5034561;28;20427;-83
2023/12/31 12:57:27;;;;;;;3.80;1.37;;;;;;;;;;5034844;28;20905;-82
2023/12/31 12:59:53;;;;;;;2.07;1.13;;;;;;;;;;5034943;28;20411;-88
2023/12/31 13:02:20;;;;;;;2.60;1.20;;;;;;;;;;5017214;28;20972;-85
2023/12/31 13:04:46;;;;;;;6.87;1.13;;;;;;;;;;5034501;28;20420;-83
2023/12/31 13:07:12;;;;;;;7.73;1.60;;;;;;;;;;5034528;28;20444;-82
2023/12/31 13:09:39;;;;;;;2.60;1.10;;;;;;;;;;5049724;28;20790;-82
2023/12/31 13:12:05;;;;;;;2.87;1.83;;;;;;;;;;5034678;28;20917;-81
2023/12/31 13:14:33;;;;;;;3.83;1.17;;;;;;;;;;5034563;28;20478;-82
2023/12/31 13:16:59;;;;;;;2.50;0.80;;;;;;;;;;5034386;28;20442;-82
2023/12/31 13:19:24;;;;;;;5.70;1.80;;;;;;;;;;5034273;28;20461;-82
2023/12/31 13:21:56;;;;;;;2.70;1.00;;;;;;;;;;5049133;28;20526;-83
2023/12/31 13:24:22;;;;;;;1.27;0.67;;;;;;;;;;5017657;28;20928;-83
2023/12/31 13:26:49;;;;;;;2.17;1.37;;;;;;;;;;5025382;28;20424;-82
2023/12/31 13:29:15;;;;;;;2.50;1.07;;;;;;;;;;5017656;28;20508;-86
2023/12/31 13:31:41;;;;;;;5.30;0.90;;;;;;;;;;5022527;28;20530;-82
2023/12/31 13:34:08;;;;;;;2.13;1.00;;;;;;;;;;5027093;28;20975;-83
2023/12/31 13:36:34;;;;;;;2.73;1.20;;;;;;;;;;5014177;28;20459;-84
2023/12/31 13:39:00;;;;;;;3.40;1.23;;;;;;;;;;5013826;28;20966;-85
2023/12/31 13:41:27;;;;;;;3.00;1.23;;;;;;;;;;5014176;28;20468;-82
2023/12/31 13:43:53;;;;;;;2.70;1.40;;;;;;;;;;5014153;28;20811;-83
2023/12/31 13:46:19;;;;;;;3.50;1.20;;;;;;;;;;5014242;28;20426;-82
2023/12/31 13:48:45;;;;;;;3.63;1.17;;;;;;;;;;5012657;28;20412;-83
2023/12/31 13:51:11;;;;;;;3.57;2.20;;;;;;;;;;5032832;28;20424;-82
2023/12/31 13:53:37;;;;;;;4.43;1.70;;;;;;;;;;5033505;28;20455;-87
2023/12/31 13:56:04;;;;;;;3.33;1.30;;;;;;;;;;5033754;28;20416;-84
2023/12/31 13:58:32;;;;;;;3.67;1.90;;;;;;;;;;5026061;28;20409;-82
2023/12/31 14:00:58;;;;;;;3.97;2.30;;;;;;;;;;5016604;28;20563;-82
2023/12/31 14:03:29;;;;;;;2.53;1.00;;;;;;;;;;5018663;28;20503;-82
2023/12/31 14:05:55;;;;;;;2.73;1.20;;;;;;;;;;5016535;28;20780;-82
2023/12/31 14:08:21;;;;;;;3.60;1.90;;;;;;;;;;5012887;28;21029;-83
2023/12/31 14:10:50;;;;;;;2.63;1.37;;;;;;;;;;5013240;28;20420;-84
2023/12/31 14:13:16;;;;;;;3.03;0.90;;;;;;;;;;5013579;28;20500;-83
2023/12/31 14:15:42;;;;;;;5.23;2.67;;;;;;;;;;5013584;28;20501;-82
2023/12/31 14:18:08;;;;;;;2.70;1.17;;;;;;;;;;5013888;28;20850;-82
2023/12/31 14:20:34;;;;;;;2.87;1.53;;;;;;;;;;5028981;28;20939;-83
2023/12/31 14:23:00;;;;;;;2.80;1.27;;;;;;;;;;5013789;28;20431;-88
2023/12/31 14:25:26;;;;;;;5.80;1.80;;;;;;;;;;4984946;28;20440;-82
2023/12/31 14:27:52;;;;;;;3.37;1.60;;;;;;;;;;5034270;28;20426;-81
2023/12/31 14:30:18;;;;;;;4.63;2.30;;;;;;;;;;5031834;28;20999;-87
2023/12/31 14:32:47;;;;;;;6.13;5.50;;;;;;;;;;5034137;28;20900;-81
2023/12/31 14:35:13;;;;;;;11.60;7.90;;;;;;;;;;5033251;28;20915;-87
2023/12/31 14:37:39;;;;;;;7.93;4.30;;;;;;;;;;5033327;28;20447;-81
2023/12/31 14:40:09;;;;;;;5.07;2.80;;;;;;;;;;5036468;28;20451;-85